createdAt,value
2023-10-26T00:01:11.348Z,90.43
2023-10-26T00:03:28.432Z,91.10
2023-10-26T00:05:45.366Z,90.03
2023-10-26T00:08:02.331Z,90.13
2023-10-26T00:10:19.655Z,90.04
2023-10-26T00:12:36.612Z,90.30
2023-10-26T00:14:53.534Z,90.14
2023-10-26T00:17:10.520Z,90.09
2023-10-26T00:19:28.565Z,90.24
2023-10-26T00:21:45.544Z,91.20
2023-10-26T00:24:02.443Z,90.56
2023-10-26T00:26:19.346Z,90.04
2023-10-26T00:28:36.255Z,90.18
2023-10-26T00:30:53.209Z,89.95
2023-10-26T00:33:10.389Z,90.66
2023-10-26T00:35:27.457Z,89.35
2023-10-26T00:37:44.410Z,90.19
2023-10-26T00:40:01.318Z,89.92
2023-10-26T00:42:18.845Z,89.87
2023-10-26T00:44:35.903Z,89.58
2023-10-26T00:46:52.786Z,90.07
2023-10-26T00:49:09.790Z,90.58
2023-10-26T00:51:26.707Z,90.69
2023-10-26T00:53:43.636Z,91.12
2023-10-26T00:56:00.590Z,91.27
2023-10-26T00:58:17.612Z,91.90
2023-10-26T01:00:34.512Z,92.15
2023-10-26T01:02:51.490Z,91.10
2023-10-26T01:05:08.471Z,90.49
2023-10-26T01:07:25.773Z,89.78
2023-10-26T01:09:42.722Z,88.94
2023-10-26T01:11:59.757Z,88.73
2023-10-26T01:14:16.757Z,88.56
2023-10-26T01:16:33.752Z,88.96
2023-10-26T01:18:50.776Z,88.57
2023-10-26T01:21:07.881Z,89.07
2023-10-26T01:23:24.782Z,90.02
2023-10-26T01:25:41.648Z,89.93
2023-10-26T01:27:59.103Z,89.99
2023-10-26T01:30:16.426Z,90.21
2023-10-26T01:32:33.357Z,90.68
2023-10-26T01:34:50.269Z,90.11
2023-10-26T01:37:07.269Z,89.82
2023-10-26T01:39:24.230Z,90.03
2023-10-26T01:41:41.277Z,90.88
2023-10-26T01:43:58.155Z,88.94
2023-10-26T01:46:15.064Z,88.55
2023-10-26T01:48:32.116Z,88.59
2023-10-26T01:50:49.154Z,88.41
2023-10-26T01:53:06.030Z,88.69
2023-10-26T01:55:23.055Z,88.34
2023-10-26T01:57:40.106Z,88.35
2023-10-26T01:59:57.165Z,88.64
2023-10-26T02:02:14.681Z,89.07
2023-10-26T02:04:31.600Z,88.93
2023-10-26T02:06:48.993Z,88.70
2023-10-26T02:09:06.610Z,89.39
2023-10-26T02:11:24.281Z,89.98
2023-10-26T02:13:41.178Z,90.79
2023-10-26T02:15:58.187Z,90.84
2023-10-26T02:18:15.201Z,90.94
2023-10-26T02:20:32.280Z,90.72
2023-10-26T02:22:49.183Z,90.28
2023-10-26T02:25:06.090Z,89.58
2023-10-26T02:27:23.142Z,89.59
2023-10-26T02:29:40.174Z,89.75
2023-10-26T02:31:57.048Z,89.58
2023-10-26T02:34:13.941Z,90.10
2023-10-26T02:36:30.922Z,91.13
2023-10-26T02:38:48.170Z,90.75
2023-10-26T02:41:05.230Z,91.34
2023-10-26T02:43:22.146Z,92.07
2023-10-26T02:45:39.094Z,92.93
2023-10-26T02:47:56.043Z,93.42
2023-10-26T02:50:13.310Z,93.57
2023-10-26T02:52:30.364Z,94.25
2023-10-26T02:54:47.326Z,93.27
2023-10-26T02:57:06.454Z,93.46
2023-10-26T02:59:23.389Z,94.38
2023-10-26T03:01:40.307Z,94.20
2023-10-26T03:03:57.448Z,93.89
2023-10-26T03:06:14.394Z,94.57
2023-10-26T03:08:31.294Z,94.28
2023-10-26T03:10:48.558Z,94.48
2023-10-26T03:13:05.486Z,93.63
2023-10-26T03:15:22.489Z,94.15
2023-10-26T03:17:39.875Z,93.48
2023-10-26T03:19:56.876Z,94.42
2023-10-26T03:22:13.819Z,94.80
2023-10-26T03:24:30.851Z,95.11
2023-10-26T03:26:47.872Z,94.26
2023-10-26T03:29:04.805Z,94.44
2023-10-26T03:31:22.103Z,95.15
2023-10-26T03:33:39.066Z,94.26
2023-10-26T03:35:56.034Z,95.29
2023-10-26T03:38:12.906Z,96.15
2023-10-26T03:40:30.070Z,94.67
2023-10-26T03:42:47.159Z,95.02
2023-10-26T03:45:04.075Z,95.55
2023-10-26T03:47:20.976Z,95.51
2023-10-26T03:49:37.903Z,97.09
2023-10-26T03:51:54.927Z,96.23
2023-10-26T03:54:12.000Z,96.78
2023-10-26T03:56:28.904Z,96.69
2023-10-26T03:58:45.818Z,96.71
2023-10-26T04:01:02.704Z,96.80
2023-10-26T04:03:20.105Z,97.37
2023-10-26T04:05:37.599Z,97.03
2023-10-26T04:07:54.514Z,97.10
2023-10-26T04:10:11.390Z,96.36
2023-10-26T04:12:28.808Z,97.01
2023-10-26T04:14:46.077Z,95.37
2023-10-26T04:17:03.429Z,95.50
2023-10-26T04:19:20.324Z,95.79
2023-10-26T04:21:37.198Z,95.76
2023-10-26T04:23:54.296Z,97.09
2023-10-26T04:26:11.303Z,96.92
2023-10-26T04:28:28.170Z,96.34
2023-10-26T04:30:45.054Z,96.78
2023-10-26T04:33:02.013Z,96.15
2023-10-26T04:35:19.084Z,97.07
2023-10-26T04:37:36.423Z,98.00
2023-10-26T04:39:53.330Z,97.15
2023-10-26T04:42:10.258Z,96.73
2023-10-26T04:44:27.219Z,97.62
2023-10-26T04:46:44.313Z,96.70
2023-10-26T04:49:01.186Z,96.78
2023-10-26T04:51:18.114Z,97.63
2023-10-26T04:53:35.034Z,97.14
2023-10-26T04:55:52.366Z,97.16
2023-10-26T04:58:09.243Z,97.46
2023-10-26T05:00:26.131Z,97.57
2023-10-26T05:02:43.122Z,98.37
2023-10-26T05:05:00.064Z,98.10
2023-10-26T05:07:16.960Z,98.55
2023-10-26T05:09:33.843Z,99.33
2023-10-26T05:11:51.255Z,97.65
2023-10-26T05:14:08.171Z,98.90
2023-10-26T05:16:25.486Z,97.42
2023-10-26T05:18:42.975Z,98.17
2023-10-26T05:21:00.474Z,97.27
2023-10-26T05:23:17.837Z,97.71
2023-10-26T05:25:34.742Z,96.97
2023-10-26T05:27:52.105Z,97.18
2023-10-26T05:30:09.182Z,96.27
2023-10-26T05:32:26.315Z,96.39
2023-10-26T05:34:43.555Z,96.09
2023-10-26T05:37:00.639Z,96.50
2023-10-26T05:39:17.619Z,96.63
2023-10-26T05:41:34.677Z,97.41
2023-10-26T05:43:51.627Z,96.81
2023-10-26T05:46:09.145Z,97.43
2023-10-26T05:48:26.520Z,96.39
2023-10-26T05:50:43.489Z,96.38
2023-10-26T05:53:00.531Z,97.27
2023-10-26T05:55:17.449Z,96.95
2023-10-26T05:57:34.381Z,95.95
2023-10-26T05:59:51.361Z,97.12
2023-10-26T06:02:08.411Z,96.77
2023-10-26T06:04:25.311Z,96.21
2023-10-26T06:06:42.208Z,96.87
2023-10-26T06:08:59.628Z,96.02
2023-10-26T06:11:17.155Z,96.96
2023-10-26T06:13:34.518Z,95.75
2023-10-26T06:15:51.404Z,96.89
2023-10-26T06:18:08.796Z,96.53
2023-10-26T06:20:26.286Z,96.25
2023-10-26T06:22:44.368Z,96.60
2023-10-26T06:25:01.505Z,96.57
2023-10-26T06:27:18.830Z,96.29
2023-10-26T06:29:36.396Z,96.49
2023-10-26T06:31:53.298Z,96.73
2023-10-26T06:34:10.652Z,96.92
2023-10-26T06:36:27.610Z,96.88
2023-10-26T06:38:45.025Z,96.63
2023-10-26T06:41:01.925Z,96.95
2023-10-26T06:43:18.901Z,96.98
2023-10-26T06:45:35.837Z,97.01
2023-10-26T06:47:54.164Z,97.31
2023-10-26T06:50:11.132Z,96.38
2023-10-26T06:52:28.056Z,97.37
2023-10-26T06:54:45.167Z,96.65
2023-10-26T06:57:02.251Z,96.50
2023-10-26T06:59:19.287Z,97.90
2023-10-26T07:02:09.071Z,97.80
2023-10-26T07:04:13.121Z,97.29
2023-10-26T07:06:30.281Z,98.30
2023-10-26T07:08:48.907Z,97.24
2023-10-26T07:11:07.283Z,97.89
2023-10-26T07:13:24.182Z,98.66
2023-10-26T07:15:41.079Z,98.42
2023-10-26T07:17:58.079Z,97.27
2023-10-26T07:20:15.020Z,98.12
2023-10-26T07:22:31.900Z,97.23
2023-10-26T07:24:48.752Z,98.26
2023-10-26T07:27:05.814Z,98.33
2023-10-26T07:29:22.730Z,98.73
2023-10-26T07:31:39.848Z,98.10
2023-10-26T07:33:56.824Z,97.24
2023-10-26T07:36:13.788Z,98.37
2023-10-26T07:38:34.667Z,98.32
2023-10-26T07:40:53.197Z,98.27
2023-10-26T07:43:10.178Z,97.00
2023-10-26T07:45:27.348Z,97.14
2023-10-26T07:47:44.358Z,97.38
2023-10-26T07:50:01.312Z,97.28
2023-10-26T07:52:18.272Z,97.27
2023-10-26T07:54:35.180Z,97.93
2023-10-26T07:56:52.213Z,97.71
2023-10-26T07:59:09.047Z,97.78
2023-10-26T08:01:25.998Z,98.13
2023-10-26T08:03:42.937Z,97.94
2023-10-26T08:06:00.312Z,97.53
2023-10-26T08:08:17.203Z,97.72
2023-10-26T08:10:34.133Z,97.81
2023-10-26T08:12:51.039Z,98.50
2023-10-26T08:16:28.392Z,98.91
2023-10-26T08:17:45.070Z,98.73
2023-10-26T08:20:02.353Z,97.42
2023-10-26T08:22:19.668Z,98.30
2023-10-26T08:24:36.585Z,97.78
2023-10-26T08:26:53.488Z,97.14
2023-10-26T08:29:18.683Z,96.80
2023-10-26T08:31:38.553Z,98.01
2023-10-26T08:33:55.524Z,96.79
2023-10-26T08:36:12.388Z,96.29
2023-10-26T08:38:29.238Z,96.18
2023-10-26T08:40:46.169Z,96.15
2023-10-26T08:43:03.079Z,96.48
2023-10-26T08:45:20.092Z,96.11
2023-10-26T08:47:37.052Z,96.27
2023-10-26T08:50:08.111Z,95.09
2023-10-26T08:52:30.897Z,96.10
2023-10-26T08:54:47.835Z,94.83
2023-10-26T08:57:04.769Z,95.01
2023-10-26T08:59:22.412Z,96.07
2023-10-26T09:01:39.602Z,94.67
2023-10-26T09:03:56.687Z,95.33
2023-10-26T09:06:13.798Z,95.61
2023-10-26T09:08:30.719Z,95.03
2023-10-26T09:10:47.670Z,95.24
2023-10-26T09:13:04.660Z,95.53
2023-10-26T09:15:21.648Z,95.68
2023-10-26T09:17:38.686Z,95.46
2023-10-26T09:19:55.782Z,95.72
2023-10-26T09:22:14.002Z,95.69
2023-10-26T09:24:31.234Z,96.18
2023-10-26T09:26:48.250Z,96.48
2023-10-26T09:29:05.409Z,95.63
2023-10-26T09:31:22.366Z,95.47
2023-10-26T09:33:39.526Z,95.84
2023-10-26T09:35:56.494Z,97.02
2023-10-26T09:38:13.543Z,96.03
2023-10-26T09:40:30.503Z,96.50
2023-10-26T09:42:47.883Z,96.46
2023-10-26T09:45:04.887Z,96.47
2023-10-26T09:47:23.247Z,95.94
2023-10-26T09:49:41.765Z,94.94
2023-10-26T09:51:58.783Z,94.71
2023-10-26T09:54:15.882Z,94.22
2023-10-26T09:56:32.827Z,94.61
2023-10-26T09:58:50.110Z,94.38
2023-10-26T10:01:07.309Z,94.69
2023-10-26T10:03:24.281Z,94.08
2023-10-26T10:05:41.242Z,92.84
2023-10-26T10:07:58.105Z,92.38
2023-10-26T10:10:15.464Z,92.70
2023-10-26T10:12:32.485Z,91.66
2023-10-26T10:14:54.569Z,91.97
2023-10-26T10:17:13.115Z,92.30
2023-10-26T10:19:31.644Z,91.71
2023-10-26T10:21:50.607Z,91.80
2023-10-26T10:24:07.682Z,91.76
2023-10-26T10:26:27.242Z,91.49
2023-10-26T10:28:44.907Z,92.25
2023-10-26T10:31:01.898Z,92.60
2023-10-26T10:33:18.999Z,93.87
2023-10-26T10:35:36.447Z,93.75
2023-10-26T10:37:53.332Z,93.85
2023-10-26T10:40:10.310Z,94.18
2023-10-26T10:42:27.363Z,94.21
2023-10-26T10:44:44.523Z,94.59
2023-10-26T10:49:36.530Z,95.01
2023-10-26T10:51:54.124Z,95.99
2023-10-26T10:54:24.159Z,95.46
2023-10-26T10:56:47.521Z,95.94
2023-10-26T10:59:04.603Z,95.94
2023-10-26T11:01:21.667Z,95.30
2023-10-26T11:03:38.711Z,95.08
2023-10-26T11:05:55.742Z,95.75
2023-10-26T11:08:12.797Z,95.50
2023-10-26T11:10:29.750Z,95.87
2023-10-26T11:12:46.772Z,95.89
2023-10-26T11:15:03.774Z,96.46
2023-10-26T11:17:21.203Z,96.49
2023-10-26T11:19:38.450Z,96.91
2023-10-26T11:21:55.401Z,96.52
2023-10-26T11:24:12.559Z,95.73
2023-10-26T11:26:29.537Z,95.65
2023-10-26T11:28:46.509Z,95.39
2023-10-26T11:31:03.540Z,95.22
2023-10-26T11:33:20.913Z,95.44
2023-10-26T11:35:37.790Z,96.22
2023-10-26T11:37:54.745Z,95.92
2023-10-26T11:40:11.753Z,96.93
2023-10-26T11:42:31.355Z,95.39
2023-10-26T11:44:48.352Z,96.29
2023-10-26T11:47:05.303Z,95.14
2023-10-26T11:49:23.274Z,93.19
2023-10-26T11:51:44.842Z,94.04
2023-10-26T11:54:07.669Z,94.39
2023-10-26T11:56:25.593Z,94.45
2023-10-26T12:00:59.453Z,93.91
2023-10-26T12:03:19.203Z,94.70
2023-10-26T12:05:36.179Z,93.44
2023-10-26T12:07:55.719Z,93.27
2023-10-26T12:10:12.660Z,93.84
2023-10-26T12:12:30.005Z,94.28
2023-10-26T12:14:47.251Z,93.28
2023-10-26T12:17:04.163Z,93.30
2023-10-26T12:19:21.115Z,94.34
2023-10-26T12:21:38.664Z,94.51
2023-10-26T12:23:55.840Z,94.54
2023-10-26T12:26:12.771Z,94.26
2023-10-26T12:28:30.785Z,96.02
2023-10-26T12:30:47.990Z,95.75
2023-10-26T12:33:05.166Z,94.50
2023-10-26T12:35:22.129Z,95.09
2023-10-26T12:37:39.170Z,94.98
2023-10-26T12:39:56.252Z,95.23
2023-10-26T12:42:13.660Z,96.46
2023-10-26T12:44:30.569Z,96.64
2023-10-26T12:46:47.556Z,97.08
2023-10-26T12:49:04.557Z,97.30
2023-10-26T12:51:21.550Z,97.02
2023-10-26T12:53:38.551Z,98.21
2023-10-26T12:55:55.422Z,97.67
2023-10-26T12:58:13.510Z,98.80
2023-10-26T13:00:32.616Z,98.08
2023-10-26T13:02:49.876Z,98.49
2023-10-26T13:05:07.348Z,98.90
2023-10-26T13:07:24.396Z,99.47
2023-10-26T13:09:41.528Z,99.96
2023-10-26T13:11:59.831Z,99.13
2023-10-26T13:14:17.916Z,100.00
2023-10-26T13:16:50.429Z,100.00
2023-10-26T13:19:15.352Z,100.00
2023-10-26T13:21:32.433Z,100.00
2023-10-26T13:23:51.826Z,99.76
2023-10-26T13:26:09.002Z,100.00
2023-10-26T13:28:25.970Z,100.00
2023-10-26T13:30:43.070Z,100.00
2023-10-26T13:33:00.047Z,100.00
2023-10-26T13:35:17.085Z,100.00
2023-10-26T13:37:34.325Z,100.00
2023-10-26T13:39:51.286Z,100.00
2023-10-26T13:42:08.779Z,100.00
2023-10-26T13:44:26.127Z,100.00
2023-10-26T13:46:43.229Z,100.00
2023-10-26T13:49:00.202Z,100.00
2023-10-26T13:51:18.308Z,100.00
2023-10-26T13:53:35.279Z,100.00
2023-10-26T13:55:52.354Z,100.00
2023-10-26T13:58:10.290Z,100.00
2023-10-26T14:00:27.203Z,100.00
2023-10-26T14:02:44.118Z,100.00
2023-10-26T14:05:01.277Z,100.00
2023-10-26T14:07:18.988Z,100.00
2023-10-26T14:09:35.984Z,100.00
2023-10-26T14:11:52.987Z,100.00
2023-10-26T14:14:10.373Z,100.00
2023-10-26T14:16:30.403Z,100.00
2023-10-26T14:18:48.722Z,100.00
2023-10-26T14:21:05.864Z,100.00
2023-10-26T14:23:22.767Z,100.00
2023-10-26T14:25:45.450Z,100.00
2023-10-26T14:28:02.373Z,100.00
2023-10-26T14:30:19.502Z,100.00
2023-10-26T14:32:36.508Z,100.00
2023-10-26T14:34:53.740Z,100.00
2023-10-26T14:37:11.101Z,100.00
2023-10-26T14:39:28.136Z,100.00
2023-10-26T14:41:45.456Z,100.00
2023-10-26T14:44:02.370Z,100.00
2023-10-26T14:46:19.869Z,100.00
2023-10-26T14:48:36.974Z,100.00
2023-10-26T14:50:53.954Z,100.00
2023-10-26T14:53:10.978Z,100.00
2023-10-26T14:55:27.934Z,100.00
2023-10-26T14:57:45.104Z,100.00
2023-10-26T15:00:03.215Z,100.00
2023-10-26T15:02:20.163Z,100.00
2023-10-26T15:04:37.517Z,100.00
2023-10-26T15:06:58.584Z,100.00
2023-10-26T15:10:21.031Z,100.00
2023-10-26T15:11:56.967Z,100.00
2023-10-26T15:14:15.567Z,100.00
2023-10-26T15:16:32.576Z,100.00
2023-10-26T15:18:50.170Z,100.00
2023-10-26T15:21:07.227Z,100.00
2023-10-26T15:23:24.231Z,100.00
2023-10-26T15:25:41.179Z,100.00
2023-10-26T15:27:59.668Z,100.00
2023-10-26T15:30:17.769Z,100.00
2023-10-26T15:32:37.805Z,100.00
2023-10-26T15:34:54.795Z,100.00
2023-10-26T15:37:11.779Z,100.00
2023-10-26T15:39:31.325Z,100.00
2023-10-26T15:41:48.485Z,100.00
2023-10-26T15:44:05.578Z,100.00
2023-10-26T15:46:22.671Z,100.00
2023-10-26T15:49:32.369Z,100.00
2023-10-26T15:51:17.739Z,100.00
2023-10-26T15:53:34.684Z,100.00
2023-10-26T15:55:52.436Z,100.00
2023-10-26T15:58:09.532Z,100.00
2023-10-26T16:00:26.538Z,100.00
2023-10-26T16:02:44.647Z,100.00
2023-10-26T16:05:01.831Z,100.00
2023-10-26T16:07:18.830Z,100.00
2023-10-26T16:09:37.330Z,100.00
2023-10-26T16:11:54.613Z,100.00
2023-10-26T16:14:11.669Z,100.00
2023-10-26T16:16:29.264Z,100.00
2023-10-26T16:18:46.849Z,100.00
2023-10-26T16:21:03.920Z,100.00
2023-10-26T16:23:20.909Z,100.00
2023-10-26T16:25:37.786Z,100.00
2023-10-26T16:27:54.765Z,100.00
2023-10-26T16:30:11.668Z,100.00
2023-10-26T16:32:28.688Z,100.00
2023-10-26T16:34:46.219Z,100.00
2023-10-26T16:37:03.241Z,100.00
2023-10-26T16:39:20.278Z,100.00
2023-10-26T16:41:37.309Z,100.00
2023-10-26T16:43:54.218Z,100.00
2023-10-26T16:46:13.350Z,100.00
2023-10-26T16:48:30.544Z,100.00
2023-10-26T16:50:47.625Z,100.00
2023-10-26T16:53:10.272Z,100.00
2023-10-26T16:55:32.931Z,100.00
2023-10-26T16:57:49.947Z,100.00
2023-10-26T17:00:07.020Z,100.00
2023-10-26T17:02:23.948Z,100.00
2023-10-26T17:04:40.899Z,100.00
2023-10-26T17:07:00.392Z,100.00
2023-10-26T17:09:17.404Z,100.00
2023-10-26T17:11:34.380Z,100.00
2023-10-26T17:13:51.265Z,100.00
2023-10-26T17:16:08.272Z,100.00
2023-10-26T17:18:26.286Z,100.00
2023-10-26T17:20:43.361Z,100.00
2023-10-26T17:23:00.306Z,100.00
2023-10-26T17:25:17.286Z,100.00
2023-10-26T17:27:34.213Z,100.00
2023-10-26T17:29:51.217Z,100.00
2023-10-26T17:32:08.142Z,100.00
2023-10-26T17:34:25.233Z,100.00
2023-10-26T17:36:42.185Z,100.00
2023-10-26T17:38:59.800Z,100.00
2023-10-26T17:41:16.717Z,100.00
2023-10-26T17:43:33.627Z,100.00
2023-10-26T17:45:50.837Z,100.00
2023-10-26T17:48:07.887Z,100.00
2023-10-26T17:50:24.886Z,100.00
2023-10-26T17:52:41.996Z,100.00
2023-10-26T17:55:00.484Z,100.00
2023-10-26T17:57:19.702Z,100.00
2023-10-26T17:59:36.648Z,100.00
2023-10-26T18:01:53.640Z,100.00
2023-10-26T18:04:10.648Z,100.00
2023-10-26T18:06:27.604Z,100.00
2023-10-26T18:08:44.601Z,100.00
2023-10-26T18:11:01.528Z,100.00
2023-10-26T18:13:18.471Z,100.00
2023-10-26T18:15:35.374Z,100.00
2023-10-26T18:17:52.357Z,100.00
2023-10-26T18:20:09.355Z,100.00
2023-10-26T18:22:26.459Z,100.00
2023-10-26T18:24:43.399Z,100.00
2023-10-26T18:27:00.367Z,100.00
2023-10-26T18:29:17.277Z,100.00
2023-10-26T18:31:34.332Z,100.00
2023-10-26T18:33:51.335Z,100.00
2023-10-26T18:36:08.269Z,100.00
2023-10-26T18:38:25.218Z,100.00
2023-10-26T18:40:42.179Z,100.00
2023-10-26T18:42:59.175Z,100.00
2023-10-26T18:45:16.135Z,100.00
2023-10-26T18:47:34.149Z,100.00
2023-10-26T18:49:51.167Z,100.00
2023-10-26T18:52:10.483Z,100.00
2023-10-26T18:54:27.493Z,100.00
2023-10-26T18:56:46.785Z,100.00
2023-10-26T18:59:03.827Z,100.00
2023-10-26T19:01:22.671Z,100.00
2023-10-26T19:03:53.753Z,100.00
2023-10-26T19:06:22.477Z,100.00
2023-10-26T19:08:39.441Z,100.00
2023-10-26T19:10:56.953Z,100.00
2023-10-26T19:13:14.186Z,100.00
2023-10-26T19:15:31.290Z,100.00
2023-10-26T19:17:48.222Z,100.00
2023-10-26T19:20:05.189Z,100.00
2023-10-26T19:22:22.124Z,100.00
2023-10-26T19:24:39.284Z,100.00
2023-10-26T19:26:56.424Z,100.00
2023-10-26T19:29:13.325Z,100.00
2023-10-26T19:31:30.444Z,100.00
2023-10-26T19:33:47.508Z,100.00
2023-10-26T19:36:04.753Z,100.00
2023-10-26T19:38:21.872Z,100.00
2023-10-26T19:40:46.417Z,100.00
2023-10-26T19:43:03.338Z,100.00
2023-10-26T19:45:25.516Z,100.00
2023-10-26T19:47:42.519Z,100.00
2023-10-26T19:49:59.482Z,100.00
2023-10-26T19:52:16.924Z,100.00
2023-10-26T19:54:34.049Z,100.00
2023-10-26T19:56:51.157Z,100.00
2023-10-26T19:59:09.147Z,100.00
2023-10-26T20:01:28.914Z,100.00
2023-10-26T20:03:46.377Z,100.00
2023-10-26T20:06:05.043Z,100.00
2023-10-26T20:08:22.165Z,100.00
2023-10-26T20:10:40.533Z,100.00
2023-10-26T20:12:57.614Z,100.00
2023-10-26T20:15:14.664Z,100.00
2023-10-26T20:17:32.004Z,100.00
2023-10-26T20:19:49.064Z,100.00
2023-10-26T20:22:06.069Z,100.00
2023-10-26T20:24:23.459Z,100.00
2023-10-26T20:26:40.768Z,100.00
2023-10-26T20:28:57.730Z,100.00
2023-10-26T20:31:16.458Z,100.00
2023-10-26T20:33:33.672Z,100.00
2023-10-26T20:35:50.641Z,100.00
2023-10-26T20:38:07.735Z,100.00
2023-10-26T20:40:24.779Z,100.00
2023-10-26T20:42:44.361Z,100.00
2023-10-26T20:45:01.598Z,100.00
2023-10-26T20:47:18.582Z,100.00
2023-10-26T20:49:35.599Z,100.00
2023-10-26T20:51:52.614Z,100.00
2023-10-26T20:54:12.646Z,100.00
2023-10-26T20:56:29.524Z,100.00
2023-10-26T20:58:46.461Z,100.00
2023-10-26T21:01:03.339Z,100.00
2023-10-26T21:03:20.309Z,100.00
2023-10-26T21:05:43.435Z,100.00
2023-10-26T21:08:00.552Z,100.00
2023-10-26T21:10:17.603Z,100.00
2023-10-26T21:12:34.587Z,100.00
2023-10-26T21:14:51.592Z,100.00
2023-10-26T21:17:08.572Z,100.00
2023-10-26T21:19:25.526Z,100.00
2023-10-26T21:21:42.477Z,100.00
2023-10-26T21:23:59.407Z,100.00
2023-10-26T21:26:17.346Z,100.00
2023-10-26T21:28:34.347Z,100.00
2023-10-26T21:30:51.308Z,100.00
2023-10-26T21:33:08.264Z,100.00
2023-10-26T21:35:25.248Z,100.00
2023-10-26T21:37:42.172Z,100.00
2023-10-26T21:39:59.590Z,100.00
2023-10-26T21:42:16.720Z,100.00
2023-10-26T21:44:33.628Z,100.00
2023-10-26T21:46:50.719Z,100.00
2023-10-26T21:49:07.739Z,100.00
2023-10-26T21:51:24.788Z,100.00
2023-10-26T21:53:41.763Z,100.00
2023-10-26T21:55:59.161Z,100.00
2023-10-26T21:58:16.226Z,100.00
2023-10-26T22:00:35.407Z,100.00
2023-10-26T22:02:53.497Z,100.00
2023-10-26T22:05:10.496Z,100.00
2023-10-26T22:07:27.401Z,100.00
2023-10-26T22:09:54.540Z,100.00
2023-10-26T22:12:12.303Z,100.00
2023-10-26T22:14:29.266Z,100.00
2023-10-26T22:16:46.351Z,100.00
2023-10-26T22:19:03.285Z,100.00
2023-10-26T22:21:20.208Z,100.00
2023-10-26T22:23:37.126Z,100.00
2023-10-26T22:25:53.982Z,100.00
2023-10-26T22:28:10.899Z,100.00
2023-10-26T22:30:28.360Z,100.00
2023-10-26T22:32:45.446Z,100.00
2023-10-26T22:35:02.533Z,100.00
2023-10-26T22:37:23.702Z,100.00
2023-10-26T22:39:40.610Z,100.00
2023-10-26T22:41:57.527Z,100.00
2023-10-26T22:44:14.419Z,100.00
2023-10-26T22:46:34.576Z,100.00
2023-10-26T22:48:51.728Z,100.00
2023-10-26T22:51:08.641Z,100.00
2023-10-26T22:53:25.513Z,100.00
2023-10-26T22:55:42.448Z,100.00
2023-10-26T22:57:59.769Z,100.00
2023-10-26T23:00:16.641Z,100.00
2023-10-26T23:02:33.600Z,100.00
2023-10-26T23:04:50.618Z,100.00
2023-10-26T23:07:07.567Z,100.00
2023-10-26T23:09:24.497Z,100.00
2023-10-26T23:11:41.495Z,100.00
2023-10-26T23:13:58.454Z,100.00
2023-10-26T23:16:15.542Z,100.00
2023-10-26T23:18:32.632Z,100.00
2023-10-26T23:20:49.603Z,100.00
2023-10-26T23:23:06.685Z,100.00
2023-10-26T23:25:24.101Z,100.00
2023-10-26T23:27:41.019Z,100.00
2023-10-26T23:29:57.965Z,100.00
2023-10-26T23:32:14.922Z,100.00
2023-10-26T23:34:32.391Z,100.00
2023-10-26T23:36:49.348Z,100.00
2023-10-26T23:39:06.305Z,100.00
2023-10-26T23:41:23.179Z,100.00
2023-10-26T23:43:40.589Z,100.00
2023-10-26T23:45:57.556Z,100.00
2023-10-26T23:48:14.973Z,100.00
2023-10-26T23:50:31.867Z,100.00
2023-10-26T23:52:48.904Z,100.00
2023-10-26T23:55:05.909Z,100.00
2023-10-26T23:57:22.836Z,100.00
2023-10-26T23:59:39.818Z,100.00
